Time;durP1;ratioP1;P1;durP2;ratioP2;P2;SDS_P1;SDS_P2;PMS_P1;PMS_P2;Temp;Humidity;BMP_temperature;BMP_pressure;BME280_temperature;BME280_humidity;BME280_pressure;Samples;Min_cycle;Max_cycle;Signal;HPM_P1;HPM_P2
2024/02/27 00:03:25;;;;;;;27.90;16.42;;;;;;;5.55;84.91;100257.44;10438168;28;20667;-77
2024/02/27 00:08:30;;;;;;;27.80;16.95;;;;;;;5.56;84.72;100256.50;10430292;28;20057;-78
2024/02/27 00:13:33;;;;;;;26.70;17.10;;;;;;;5.50;84.97;100252.41;10415067;28;20052;-78
2024/02/27 00:18:36;;;;;;;26.02;16.00;;;;;;;5.47;84.92;100252.59;10418713;28;20048;-78
2024/02/27 00:23:40;;;;;;;26.35;16.08;;;;;;;5.34;85.59;100248.13;10443830;28;20068;-77
2024/02/27 00:28:43;;;;;;;24.50;15.77;;;;;;;5.45;85.12;100264.28;10426604;28;20071;-77
2024/02/27 00:33:46;;;;;;;28.63;16.42;;;;;;;5.41;85.29;100266.31;10442773;28;20045;-78
2024/02/27 00:38:51;;;;;;;28.73;16.25;;;;;;;5.43;84.99;100267.06;10421237;28;20056;-77
2024/02/27 00:43:54;;;;;;;29.45;17.52;;;;;;;5.37;85.13;100272.75;10432258;28;20190;-77
2024/02/27 00:48:57;;;;;;;29.42;16.95;;;;;;;5.33;85.62;100276.56;10434225;28;20058;-78
2024/02/27 00:54:01;;;;;;;28.88;17.02;;;;;;;5.30;85.55;100282.09;10443711;28;20049;-78
2024/02/27 00:59:04;;;;;;;28.60;17.05;;;;;;;5.23;86.04;100286.91;10465530;28;20051;-77
2024/02/27 01:04:07;;;;;;;28.85;16.77;;;;;;;5.20;85.85;100284.44;10442519;28;20052;-78
2024/02/27 01:09:11;;;;;;;30.80;18.15;;;;;;;5.10;86.69;100279.75;10433266;28;20053;-78
2024/02/27 01:14:14;;;;;;;29.63;17.70;;;;;;;5.10;86.68;100285.06;10425323;28;20099;-78
2024/02/27 01:19:20;;;;;;;30.10;16.25;;;;;;;5.03;87.35;100280.13;10437108;28;20212;-78
2024/02/27 01:24:25;;;;;;;30.08;16.50;;;;;;;5.01;87.31;100284.69;10447167;28;20064;-78
2024/02/27 01:29:28;;;;;;;29.08;17.85;;;;;;;4.91;87.73;100275.50;10439144;28;20052;-77
2024/02/27 01:34:31;;;;;;;33.40;18.30;;;;;;;4.88;87.81;100274.81;10441982;28;20055;-77
2024/02/27 01:39:35;;;;;;;29.98;16.33;;;;;;;4.81;88.34;100280.50;10441700;28;20047;-77
2024/02/27 01:44:45;;;;;;;27.83;16.15;;;;;;;4.77;88.44;100286.09;10429697;28;21282;-78
2024/02/27 01:49:49;;;;;;;29.77;16.50;;;;;;;4.71;88.41;100286.44;10430063;28;20187;-78
2024/02/27 01:54:54;;;;;;;30.63;17.92;;;;;;;4.59;88.90;100290.69;10463740;28;20056;-78
2024/02/27 01:59:57;;;;;;;36.15;19.42;;;;;;;4.44;89.39;100292.41;10468137;28;20056;-78
2024/02/27 02:05:00;;;;;;;35.40;19.80;;;;;;;4.34;90.21;100300.06;10448797;28;21218;-78
2024/02/27 02:10:06;;;;;;;36.20;19.58;;;;;;;4.25;90.64;100308.56;10443218;28;20053;-78
2024/02/27 02:15:09;;;;;;;38.20;19.95;;;;;;;4.16;91.53;100314.38;10432221;28;20147;-78
2024/02/27 02:20:17;;;;;;;39.33;20.65;;;;;;;4.04;92.42;100326.56;10428352;28;20136;-78
2024/02/27 02:25:21;;;;;;;38.70;21.58;;;;;;;3.96;93.74;100336.75;10447671;28;20067;-78
2024/02/27 02:30:24;;;;;;;39.00;19.98;;;;;;;3.93;94.02;100335.13;10431663;28;20416;-78
2024/02/27 02:35:29;;;;;;;38.78;21.23;;;;;;;3.89;94.19;100343.31;10434193;28;20041;-78
2024/02/27 02:40:32;;;;;;;37.13;20.17;;;;;;;3.88;94.45;100338.97;10411333;28;20044;-78
2024/02/27 02:45:35;;;;;;;38.92;20.85;;;;;;;3.90;94.25;100347.72;10419918;28;20044;-78
2024/02/27 02:50:39;;;;;;;37.60;20.02;;;;;;;3.91;94.17;100354.75;10445888;28;20048;-77
2024/02/27 02:55:43;;;;;;;36.97;19.75;;;;;;;3.87;94.21;100356.72;10437406;28;20056;-78
2024/02/27 03:00:46;;;;;;;38.45;20.83;;;;;;;3.89;94.07;100359.28;10440793;28;20052;-78
2024/02/27 03:05:50;;;;;;;39.15;20.60;;;;;;;3.89;93.84;100367.25;10416445;28;20047;-77
2024/02/27 03:10:54;;;;;;;35.53;20.30;;;;;;;3.86;93.86;100370.06;10433754;28;20052;-77
2024/02/27 03:15:57;;;;;;;37.55;19.25;;;;;;;3.81;93.85;100372.97;10425618;28;20044;-78
2024/02/27 03:21:01;;;;;;;34.60;18.30;;;;;;;3.84;94.17;100380.78;10418814;28;20051;-77
2024/02/27 03:26:05;;;;;;;36.92;19.33;;;;;;;3.91;94.24;100387.47;10424320;28;20056;-78
2024/02/27 03:31:08;;;;;;;35.50;17.92;;;;;;;3.98;94.29;100390.69;10432227;28;20151;-78
2024/02/27 03:36:13;;;;;;;37.10;17.90;;;;;;;4.06;93.47;100390.25;10408121;28;20054;-78
2024/02/27 03:41:16;;;;;;;32.30;18.42;;;;;;;4.10;92.77;100392.69;10407638;28;20051;-77
2024/02/27 03:46:19;;;;;;;32.78;18.10;;;;;;;4.06;92.37;100384.94;10412738;28;20060;-77
2024/02/27 03:51:24;;;;;;;33.00;17.88;;;;;;;4.10;92.03;100381.19;10395855;28;20179;-78
2024/02/27 03:56:27;;;;;;;35.78;18.02;;;;;;;3.96;91.32;100384.59;10409021;28;20064;-77
2024/02/27 04:01:30;;;;;;;32.72;18.10;;;;;;;3.94;91.52;100394.44;10417831;28;20044;-78
2024/02/27 04:06:34;;;;;;;31.63;17.13;;;;;;;3.89;91.70;100385.84;10438884;28;21445;-78
2024/02/27 04:11:37;;;;;;;33.55;18.25;;;;;;;3.92;91.78;100385.69;10445188;28;21185;-78
2024/02/27 04:16:40;;;;;;;35.55;18.67;;;;;;;3.96;91.73;100392.56;10433732;28;20448;-78
2024/02/27 04:21:45;;;;;;;33.40;18.13;;;;;;;3.92;91.73;100401.63;10425278;28;21290;-77
2024/02/27 04:26:48;;;;;;;31.90;18.10;;;;;;;3.99;91.54;100412.81;10459570;28;20508;-78
2024/02/27 04:31:51;;;;;;;37.65;19.45;;;;;;;4.04;91.55;100408.97;10432277;28;20072;-78
2024/02/27 04:36:56;;;;;;;41.08;20.33;;;;;;;4.00;91.44;100406.53;10447615;28;20067;-78
2024/02/27 04:41:59;;;;;;;40.67;19.67;;;;;;;3.93;91.62;100422.81;10453360;28;20049;-78
2024/02/27 04:47:04;;;;;;;41.40;21.05;;;;;;;3.99;91.27;100429.59;10436380;28;20546;-78
2024/02/27 04:52:08;;;;;;;36.67;19.50;;;;;;;3.97;91.43;100431.47;10450909;28;20518;-78
2024/02/27 04:57:11;;;;;;;41.75;20.63;;;;;;;3.95;91.20;100444.00;10444334;28;20052;-78
2024/02/27 05:02:14;;;;;;;38.20;19.85;;;;;;;3.89;91.01;100434.53;10462944;28;20479;-78
2024/02/27 05:07:19;;;;;;;34.42;18.45;;;;;;;3.78;90.58;100444.00;10436263;28;20055;-78
2024/02/27 05:12:22;;;;;;;30.20;16.50;;;;;;;3.56;90.81;100449.56;10434875;28;20041;-78
2024/02/27 05:17:25;;;;;;;32.15;16.77;;;;;;;3.65;90.44;100449.97;10457021;28;21228;-78
2024/02/27 05:22:29;;;;;;;33.42;17.73;;;;;;;3.61;90.16;100448.41;10434786;28;20052;-79
2024/02/27 05:27:32;;;;;;;36.22;18.75;;;;;;;3.49;90.73;100467.63;10415678;28;20047;-79
2024/02/27 05:32:37;;;;;;;34.30;17.55;;;;;;;3.52;90.81;100478.09;10423303;28;20056;-78
2024/02/27 05:37:42;;;;;;;32.08;16.50;;;;;;;3.43;91.24;100484.72;10432089;28;20284;-78
2024/02/27 05:42:45;;;;;;;33.45;16.48;;;;;;;3.44;91.61;100486.44;10448373;28;20048;-79
2024/02/27 05:47:48;;;;;;;34.28;17.55;;;;;;;3.34;91.69;100494.94;10416748;28;20567;-79
2024/02/27 05:52:52;;;;;;;33.97;17.20;;;;;;;3.42;91.78;100493.63;10419254;28;20063;-78
2024/02/27 05:57:55;;;;;;;29.95;15.85;;;;;;;3.52;90.99;100498.50;10416699;28;20088;-78
2024/02/27 06:02:58;;;;;;;30.58;16.13;;;;;;;3.58;90.02;100500.84;10416337;28;20539;-79
2024/02/27 06:08:03;;;;;;;29.83;14.95;;;;;;;3.44;89.87;100514.78;10430607;28;20052;-79
2024/02/27 06:13:06;;;;;;;28.58;15.82;;;;;;;3.53;90.17;100524.97;10425428;28;20048;-79
2024/02/27 06:18:13;;;;;;;27.98;15.63;;;;;;;3.59;89.86;100524.63;10439008;28;20052;-79
2024/02/27 06:23:18;;;;;;;33.92;16.67;;;;;;;3.54;89.92;100524.03;10433983;28;20049;-79
2024/02/27 06:28:21;;;;;;;29.80;15.80;;;;;;;3.57;90.06;100536.31;10414250;28;20043;-78
2024/02/27 06:33:24;;;;;;;28.67;15.15;;;;;;;3.60;89.95;100542.31;10469931;28;20088;-79
2024/02/27 06:38:29;;;;;;;31.50;16.70;;;;;;;3.65;89.60;100553.59;10483464;28;21158;-79
2024/02/27 06:43:32;;;;;;;32.60;16.88;;;;;;;3.72;89.31;100564.75;10440234;28;20611;-79
2024/02/27 06:48:35;;;;;;;30.25;15.90;;;;;;;3.72;89.22;100578.91;10433046;28;20040;-79
2024/02/27 06:53:41;;;;;;;31.35;15.75;;;;;;;3.75;88.72;100577.88;10445450;28;20054;-79
2024/02/27 06:58:44;;;;;;;29.80;15.38;;;;;;;3.75;88.89;100580.53;10460439;28;20041;-79
2024/02/27 07:03:47;;;;;;;30.35;15.10;;;;;;;3.77;88.31;100580.47;10417137;28;20052;-79
2024/02/27 07:08:52;;;;;;;35.53;17.52;;;;;;;3.78;88.47;100596.34;10435583;28;21172;-78
2024/02/27 07:13:55;;;;;;;29.70;15.40;;;;;;;3.75;88.15;100593.81;10413509;28;21586;-78
2024/02/27 07:18:58;;;;;;;28.98;15.07;;;;;;;3.83;88.22;100614.72;10413794;28;20542;-79
2024/02/27 07:24:02;;;;;;;31.45;16.85;;;;;;;3.85;87.68;100603.06;10412501;28;20053;-78
2024/02/27 07:29:06;;;;;;;30.55;15.45;;;;;;;3.92;87.34;100608.94;10411798;28;20045;-78
2024/02/27 07:34:11;;;;;;;28.00;15.98;;;;;;;3.90;87.51;100608.16;10413622;28;20057;-79
2024/02/27 07:39:16;;;;;;;30.25;14.52;;;;;;;3.97;87.28;100611.38;10414065;28;20045;-78
2024/02/27 07:44:19;;;;;;;28.25;15.13;;;;;;;4.05;86.66;100606.53;10440273;28;20064;-78
2024/02/27 07:49:22;;;;;;;29.08;14.82;;;;;;;4.10;86.60;100618.66;10434465;28;20539;-80
2024/02/27 07:54:27;;;;;;;28.60;15.18;;;;;;;4.15;85.96;100618.44;10448140;28;20060;-78
2024/02/27 07:59:30;;;;;;;27.50;14.07;;;;;;;4.27;85.64;100616.94;10427493;28;20059;-78
2024/02/27 08:04:33;;;;;;;28.90;15.25;;;;;;;4.32;84.86;100620.22;10457035;28;20052;-79
2024/02/27 08:09:38;;;;;;;24.95;13.65;;;;;;;4.27;84.60;100625.78;10459856;28;20052;-78
2024/02/27 08:14:41;;;;;;;25.13;14.77;;;;;;;4.38;84.16;100623.41;10422943;28;20055;-79
2024/02/27 08:19:44;;;;;;;25.58;12.98;;;;;;;4.34;84.17;100637.84;10408875;28;20046;-79
2024/02/27 08:24:49;;;;;;;25.10;13.23;;;;;;;4.48;84.19;100639.78;10432093;28;20530;-79
2024/02/27 08:29:52;;;;;;;28.65;15.18;;;;;;;4.62;83.53;100633.75;10439666;28;20060;-78
2024/02/27 08:34:55;;;;;;;26.00;13.70;;;;;;;4.84;82.56;100652.09;10451381;28;20132;-78
2024/02/27 08:40:00;;;;;;;23.52;12.70;;;;;;;4.98;81.95;100652.22;10438870;28;20052;-79
2024/02/27 08:45:03;;;;;;;27.55;14.38;;;;;;;5.11;81.12;100641.81;10449832;28;20069;-80
2024/02/27 08:50:07;;;;;;;24.20;12.95;;;;;;;5.06;80.36;100638.53;10453429;28;20140;-79
2024/02/27 08:55:11;;;;;;;28.60;15.25;;;;;;;5.29;79.82;100639.94;10441593;28;20061;-80
2024/02/27 09:00:16;;;;;;;30.15;12.77;;;;;;;5.35;78.49;100649.41;10458434;28;20419;-79
2024/02/27 09:05:19;;;;;;;23.33;12.20;;;;;;;5.30;79.22;100651.47;10434197;28;20075;-77
2024/02/27 09:10:24;;;;;;;23.42;12.50;;;;;;;5.46;78.66;100669.19;10454684;28;20150;-77
2024/02/27 09:15:27;;;;;;;22.50;11.65;;;;;;;5.43;78.23;100656.03;10460584;28;21179;-80
2024/02/27 09:20:31;;;;;;;22.25;11.93;;;;;;;5.48;77.32;100648.63;10451428;28;20056;-79
2024/02/27 09:25:38;;;;;;;22.65;11.60;;;;;;;5.45;77.56;100645.28;10452472;28;20523;-78
2024/02/27 09:30:42;;;;;;;23.63;11.95;;;;;;;5.41;77.74;100649.94;10438552;28;20044;-79
2024/02/27 09:35:45;;;;;;;21.50;11.48;;;;;;;5.56;77.78;100658.00;10438417;28;20601;-79
2024/02/27 09:40:53;;;;;;;21.92;11.10;;;;;;;5.78;76.80;100655.84;10430191;28;20063;-79
2024/02/27 09:45:57;;;;;;;20.58;11.32;;;;;;;5.80;76.20;100653.97;10438619;28;20102;-79
2024/02/27 09:51:04;;;;;;;21.77;11.73;;;;;;;5.87;76.43;100650.03;10434703;28;21369;-79
2024/02/27 09:56:14;;;;;;;21.55;11.63;;;;;;;5.90;75.21;100635.66;10434381;28;20084;-79
2024/02/27 10:01:18;;;;;;;19.13;11.32;;;;;;;6.02;74.72;100634.94;10442172;28;20049;-78
2024/02/27 10:06:23;;;;;;;22.17;11.43;;;;;;;6.24;73.95;100631.88;10436067;28;20049;-79
2024/02/27 10:11:28;;;;;;;19.75;11.43;;;;;;;6.45;72.95;100624.41;10444290;28;20053;-79
2024/02/27 10:16:31;;;;;;;19.52;11.10;;;;;;;6.52;71.73;100633.75;10433393;28;20519;-79
2024/02/27 10:21:34;;;;;;;18.73;11.05;;;;;;;6.57;71.00;100636.16;10443320;28;20599;-79
2024/02/27 10:26:38;;;;;;;18.05;10.27;;;;;;;6.89;69.02;100641.38;10441266;28;20044;-79
2024/02/27 10:31:41;;;;;;;21.70;11.07;;;;;;;7.23;67.84;100649.00;10425756;28;20041;-79
2024/02/27 10:36:44;;;;;;;21.58;10.93;;;;;;;7.22;68.00;100649.97;10437336;28;20542;-78
2024/02/27 10:41:49;;;;;;;16.10;9.95;;;;;;;7.06;68.05;100652.72;10435681;28;20056;-79
2024/02/27 10:46:54;;;;;;;17.30;10.10;;;;;;;7.06;67.91;100665.22;10433746;28;20740;-79
2024/02/27 10:52:01;;;;;;;15.77;9.15;;;;;;;7.33;67.84;100657.31;10431629;28;20049;-78
2024/02/27 10:57:07;;;;;;;20.45;10.25;;;;;;;7.56;65.09;100669.19;10448122;28;20112;-79
2024/02/27 11:02:16;;;;;;;17.80;9.77;;;;;;;7.71;65.20;100665.53;10456677;28;20055;-78
2024/02/27 11:07:20;;;;;;;16.73;10.23;;;;;;;8.05;63.94;100660.66;10431689;28;20068;-78
2024/02/27 11:12:25;;;;;;;13.32;8.45;;;;;;;7.92;63.55;100663.28;10491467;28;20293;-79
2024/02/27 11:17:30;;;;;;;19.95;10.68;;;;;;;7.79;64.21;100677.53;10504662;28;20093;-79
2024/02/27 11:22:35;;;;;;;16.10;9.63;;;;;;;8.13;63.76;100663.69;10453704;28;20625;-79
2024/02/27 11:27:41;;;;;;;16.55;9.20;;;;;;;7.80;63.34;100671.25;10431282;28;20056;-79
2024/02/27 11:32:44;;;;;;;17.20;9.68;;;;;;;7.86;63.26;100678.88;10433062;28;20060;-78
2024/02/27 11:37:49;;;;;;;17.38;9.48;;;;;;;7.99;63.71;100669.09;10428978;28;20045;-78
2024/02/27 11:42:53;;;;;;;16.20;9.70;;;;;;;8.36;61.79;100646.09;10444758;28;20052;-79
2024/02/27 11:47:57;;;;;;;18.00;9.65;;;;;;;8.18;61.09;100650.00;10413169;28;20072;-79
2024/02/27 11:53:00;;;;;;;13.35;8.45;;;;;;;8.06;60.98;100653.47;10413364;28;20048;-78
2024/02/27 11:58:04;;;;;;;15.73;8.98;;;;;;;8.52;61.18;100643.25;10416873;28;20055;-78
2024/02/27 12:03:07;;;;;;;16.23;8.80;;;;;;;8.83;58.78;100646.47;10422128;28;21179;-79
2024/02/27 12:08:11;;;;;;;14.00;8.63;;;;;;;8.66;59.46;100642.31;10426800;28;20714;-79
2024/02/27 12:13:16;;;;;;;14.85;9.43;;;;;;;8.90;58.59;100631.72;10432610;28;20059;-79
2024/02/27 12:18:20;;;;;;;13.13;8.68;;;;;;;8.58;57.67;100629.47;10447229;28;20048;-79
2024/02/27 12:23:23;;;;;;;16.40;8.95;;;;;;;9.15;57.84;100619.25;10417174;28;20048;-78
2024/02/27 12:28:30;;;;;;;14.32;8.95;;;;;;;11.27;51.25;100612.16;10434474;28;20541;-79
2024/02/27 12:33:33;;;;;;;11.57;8.60;;;;;;;14.78;45.68;100602.97;10419633;28;20041;-78
2024/02/27 12:38:36;;;;;;;16.05;8.93;;;;;;;14.71;42.00;100590.19;10419617;28;20049;-79
2024/02/27 12:43:41;;;;;;;13.65;9.23;;;;;;;12.47;46.24;100580.72;10420491;28;20424;-79
2024/02/27 12:48:44;;;;;;;11.32;8.48;;;;;;;11.07;49.89;100605.66;10418055;28;20072;-79
2024/02/27 12:53:50;;;;;;;15.30;9.65;;;;;;;10.15;52.61;100594.91;10415762;28;20044;-79
2024/02/27 12:58:55;;;;;;;12.98;9.10;;;;;;;9.92;53.54;100595.75;10446765;28;20059;-78
2024/02/27 13:03:59;;;;;;;10.95;7.90;;;;;;;9.93;53.81;100594.81;10453866;28;20060;-78
2024/02/27 13:09:03;;;;;;;14.02;9.15;;;;;;;9.77;54.71;100589.69;10438636;28;20048;-78
2024/02/27 13:14:07;;;;;;;15.15;9.73;;;;;;;9.73;54.30;100581.00;10420622;28;20055;-78
2024/02/27 13:19:10;;;;;;;14.32;9.75;;;;;;;9.87;54.59;100571.97;10430972;28;20083;-78
2024/02/27 13:24:13;;;;;;;15.15;9.98;;;;;;;11.54;51.27;100578.63;10440363;28;20056;-78
2024/02/27 13:29:18;;;;;;;15.13;8.98;;;;;;;13.22;45.95;100571.47;10440807;28;20061;-79
2024/02/27 13:34:22;;;;;;;12.70;9.52;;;;;;;12.33;46.65;100571.13;10444242;28;20056;-79
2024/02/27 13:39:25;;;;;;;12.48;8.93;;;;;;;12.04;48.35;100579.81;10470717;28;20123;-79
2024/02/27 13:44:30;;;;;;;13.00;9.82;;;;;;;11.46;48.16;100576.56;10447895;28;20053;-78
2024/02/27 13:49:33;;;;;;;14.02;9.43;;;;;;;11.91;48.48;100576.44;10432797;28;20158;-79
2024/02/27 13:54:37;;;;;;;16.20;9.35;;;;;;;11.93;47.88;100579.88;10431636;28;20048;-79
2024/02/27 13:59:42;;;;;;;11.10;8.65;;;;;;;13.66;44.64;100569.31;10446715;28;20047;-78
2024/02/27 14:04:45;;;;;;;11.55;8.93;;;;;;;12.15;45.96;100569.00;10448858;28;20629;-78
2024/02/27 14:09:48;;;;;;;12.98;9.15;;;;;;;11.15;49.35;100570.16;10440988;28;20426;-78
2024/02/27 14:14:53;;;;;;;12.10;9.02;;;;;;;13.03;46.97;100558.75;10460319;28;20053;-79
2024/02/27 14:19:56;;;;;;;12.20;8.65;;;;;;;14.21;43.11;100544.44;10433543;28;20519;-79
2024/02/27 14:25:01;;;;;;;11.98;8.93;;;;;;;13.65;42.96;100544.16;10423536;28;20055;-78
2024/02/27 14:30:07;;;;;;;11.82;8.35;;;;;;;13.94;43.35;100537.94;10436417;28;20129;-78
2024/02/27 14:35:10;;;;;;;12.20;9.57;;;;;;;13.67;42.78;100536.78;10442657;28;20098;-79
2024/02/27 14:40:13;;;;;;;11.57;9.75;;;;;;;13.90;42.57;100521.16;10440031;28;20534;-78
2024/02/27 14:45:18;;;;;;;11.63;9.07;;;;;;;13.71;43.00;100522.00;10436491;28;20101;-80
2024/02/27 14:50:22;;;;;;;12.13;9.90;;;;;;;13.58;43.33;100521.44;10423180;28;20053;-79
2024/02/27 14:55:25;;;;;;;12.10;10.13;;;;;;;13.69;43.19;100517.75;10440488;28;20051;-79
2024/02/27 15:00:29;;;;;;;12.68;10.40;;;;;;;13.43;43.20;100512.88;10424540;28;20045;-79
2024/02/27 15:05:32;;;;;;;13.65;10.63;;;;;;;13.03;44.74;100512.91;10431686;28;20072;-78
2024/02/27 15:10:35;;;;;;;11.32;8.80;;;;;;;13.07;44.41;100516.19;10440073;28;20044;-79
2024/02/27 15:15:40;;;;;;;14.65;10.40;;;;;;;12.90;44.41;100517.69;10445241;28;20061;-79
2024/02/27 15:20:43;;;;;;;13.52;10.40;;;;;;;12.29;45.70;100524.75;10445219;28;20060;-79
2024/02/27 15:25:46;;;;;;;13.82;10.40;;;;;;;12.47;45.79;100511.53;10500914;28;20366;-78
2024/02/27 15:30:50;;;;;;;15.88;12.23;;;;;;;12.37;45.61;100524.09;10453960;28;20056;-79
2024/02/27 15:35:53;;;;;;;16.13;12.45;;;;;;;12.27;45.82;100532.06;10439050;28;20122;-79
2024/02/27 15:40:56;;;;;;;16.75;12.48;;;;;;;12.15;46.43;100514.28;10414592;28;20057;-78
2024/02/27 15:46:01;;;;;;;18.77;13.85;;;;;;;11.76;47.44;100531.97;10417157;28;20055;-79
2024/02/27 15:51:08;;;;;;;16.40;12.35;;;;;;;11.07;48.86;100530.41;10431219;28;20067;-78
2024/02/27 15:56:11;;;;;;;14.75;10.32;;;;;;;10.35;50.61;100534.28;10424199;28;20157;-79
2024/02/27 16:01:15;;;;;;;14.45;9.55;;;;;;;9.47;52.64;100534.66;10445787;28;20048;-78
2024/02/27 16:06:25;;;;;;;16.17;11.27;;;;;;;8.81;55.92;100536.78;10490256;28;20052;-78
2024/02/27 16:11:28;;;;;;;22.75;15.90;;;;;;;8.36;57.76;100549.75;10451854;28;20145;-78
2024/02/27 16:16:33;;;;;;;27.90;17.70;;;;;;;8.40;58.34;100561.09;10438825;28;20047;-78
2024/02/27 16:21:41;;;;;;;30.60;19.20;;;;;;;8.44;58.39;100562.56;10445053;28;20511;-80
2024/02/27 16:26:44;;;;;;;30.35;19.92;;;;;;;8.39;58.79;100567.38;10441183;28;20427;-79
2024/02/27 16:31:48;;;;;;;30.73;20.20;;;;;;;8.21;59.14;100566.00;10447020;28;20041;-78
2024/02/27 16:36:52;;;;;;;30.77;19.90;;;;;;;7.90;59.98;100570.75;10443233;28;20405;-78
2024/02/27 16:41:55;;;;;;;28.10;18.80;;;;;;;7.62;60.98;100575.22;10417016;28;20428;-79
2024/02/27 16:46:59;;;;;;;30.05;18.10;;;;;;;7.16;62.70;100577.34;10422124;28;20062;-78
2024/02/27 16:52:02;;;;;;;29.08;17.58;;;;;;;6.72;64.56;100573.81;10425092;28;20060;-79
2024/02/27 16:57:05;;;;;;;26.40;16.50;;;;;;;6.43;65.92;100580.09;10437142;28;20041;-79
2024/02/27 17:02:10;;;;;;;26.13;15.63;;;;;;;6.25;66.61;100592.69;10441650;28;20623;-78
2024/02/27 17:07:13;;;;;;;28.45;16.10;;;;;;;6.07;67.66;100594.66;10465887;28;20060;-79
2024/02/27 17:12:16;;;;;;;30.27;17.45;;;;;;;5.89;68.77;100597.44;10439291;28;20065;-79
2024/02/27 17:17:21;;;;;;;29.05;16.88;;;;;;;5.74;69.66;100606.34;10438689;28;20056;-78
2024/02/27 17:22:24;;;;;;;29.73;17.70;;;;;;;5.63;70.19;100616.75;10434176;28;20508;-77
2024/02/27 17:27:27;;;;;;;30.50;18.25;;;;;;;5.46;71.09;100629.22;10431346;28;20048;-78
2024/02/27 17:32:31;;;;;;;33.08;19.70;;;;;;;5.36;71.86;100637.81;10444578;28;20051;-78
2024/02/27 17:37:34;;;;;;;36.30;21.33;;;;;;;5.33;72.16;100638.00;10448611;28;20048;-78
2024/02/27 17:42:37;;;;;;;34.78;20.55;;;;;;;5.25;72.47;100633.06;10441575;28;20045;-78
2024/02/27 17:47:45;;;;;;;35.85;21.05;;;;;;;5.15;73.00;100639.84;10447543;28;20053;-77
2024/02/27 17:52:48;;;;;;;37.60;21.13;;;;;;;5.09;73.44;100651.69;10434448;28;20079;-78
2024/02/27 17:57:51;;;;;;;39.40;22.63;;;;;;;5.04;73.99;100659.06;10435188;28;20045;-77
2024/02/27 18:02:55;;;;;;;40.30;22.45;;;;;;;5.04;74.17;100653.72;10436527;28;20052;-77
2024/02/27 18:07:58;;;;;;;48.85;25.88;;;;;;;5.05;74.43;100659.00;10436143;28;20431;-77
2024/02/27 18:13:01;;;;;;;40.33;22.60;;;;;;;5.02;74.42;100668.94;10439970;28;20543;-77
2024/02/27 18:18:06;;;;;;;42.55;23.13;;;;;;;4.96;74.34;100675.41;10438686;28;20097;-78
2024/02/27 18:23:09;;;;;;;48.63;26.77;;;;;;;5.01;75.14;100678.72;10442416;28;20083;-79
2024/02/27 18:28:12;;;;;;;55.05;30.67;;;;;;;5.06;75.31;100670.50;10434949;28;20653;-79
2024/02/27 18:33:17;;;;;;;51.67;29.38;;;;;;;5.10;75.63;100681.84;10443060;28;20048;-77
2024/02/27 18:38:22;;;;;;;50.90;28.85;;;;;;;5.22;75.78;100681.19;10444197;28;20045;-77
2024/02/27 18:43:25;;;;;;;56.38;32.28;;;;;;;5.33;75.38;100685.94;10445234;28;20052;-77
2024/02/27 18:48:30;;;;;;;55.78;30.10;;;;;;;5.27;75.46;100684.47;10437763;28;20044;-77
2024/02/27 18:53:39;;;;;;;50.08;30.50;;;;;;;5.25;75.79;100691.69;10457123;28;20049;-77
2024/02/27 18:58:42;;;;;;;53.63;30.50;;;;;;;5.29;75.85;100687.88;10445820;28;20055;-78
2024/02/27 19:03:46;;;;;;;53.25;31.15;;;;;;;5.24;75.95;100698.81;10436027;28;21153;-78
2024/02/27 19:08:49;;;;;;;48.70;27.08;;;;;;;5.17;76.08;100716.06;10432500;28;20049;-78
2024/02/27 19:13:53;;;;;;;49.08;27.20;;;;;;;5.21;76.14;100720.28;10420298;28;20869;-78
2024/02/27 19:19:00;;;;;;;46.03;26.27;;;;;;;5.21;76.22;100725.63;10415372;28;20051;-78
2024/02/27 19:24:03;;;;;;;49.08;26.65;;;;;;;5.21;76.15;100722.06;10433173;28;20106;-79
2024/02/27 19:29:06;;;;;;;48.22;28.30;;;;;;;5.06;76.19;100715.75;10426931;28;20059;-79
2024/02/27 19:34:11;;;;;;;42.85;24.35;;;;;;;4.83;76.40;100724.94;10435429;28;20048;-78
2024/02/27 19:39:14;;;;;;;39.88;22.55;;;;;;;4.70;76.75;100732.66;10442637;28;21155;-78
2024/02/27 19:44:17;;;;;;;43.50;22.23;;;;;;;4.67;77.04;100732.84;10425590;28;20198;-78
2024/02/27 19:49:21;;;;;;;35.22;19.77;;;;;;;4.58;76.99;100739.50;10443068;28;20051;-78
2024/02/27 19:54:25;;;;;;;37.45;19.45;;;;;;;4.43;77.63;100734.91;10431363;28;20048;-78
2024/02/27 19:59:29;;;;;;;43.67;24.13;;;;;;;4.35;78.21;100735.28;10427196;28;20547;-79
2024/02/27 20:04:33;;;;;;;41.70;23.42;;;;;;;4.30;78.47;100733.81;10440067;28;20045;-78
2024/02/27 20:09:36;;;;;;;44.53;23.98;;;;;;;4.25;78.93;100720.75;10436276;28;20044;-78
2024/02/27 20:14:41;;;;;;;39.35;21.92;;;;;;;4.18;79.08;100716.66;10433301;28;20050;-78
2024/02/27 20:19:45;;;;;;;36.85;21.48;;;;;;;4.00;79.86;100717.53;10424553;28;20036;-78
2024/02/27 20:24:48;;;;;;;34.72;19.45;;;;;;;3.91;80.27;100727.69;10436584;28;21195;-78
2024/02/27 20:29:51;;;;;;;35.00;18.40;;;;;;;3.85;80.60;100711.19;10442669;28;20515;-78
2024/02/27 20:35:03;;;;;;;31.20;16.65;;;;;;;3.72;80.49;100721.53;10444085;28;20057;-78
2024/02/27 20:40:09;;;;;;;35.42;18.10;;;;;;;3.75;80.94;100724.03;10439110;28;20064;-78
2024/02/27 20:45:12;;;;;;;38.17;21.63;;;;;;;3.76;80.52;100724.88;10434101;28;20048;-78
2024/02/27 20:50:17;;;;;;;31.88;19.88;;;;;;;3.69;80.51;100727.84;10426737;28;20184;-78
2024/02/27 20:55:20;;;;;;;28.77;16.88;;;;;;;3.63;80.95;100738.75;10474880;28;20048;-78
2024/02/27 21:00:23;;;;;;;31.77;18.42;;;;;;;3.59;81.56;100747.78;10457824;28;20071;-79
2024/02/27 21:05:28;;;;;;;32.65;20.00;;;;;;;3.40;81.25;100763.75;10438729;28;20093;-79
2024/02/27 21:10:31;;;;;;;30.90;17.95;;;;;;;3.33;82.04;100750.78;10441526;28;20139;-79
2024/02/27 21:15:34;;;;;;;31.02;18.00;;;;;;;3.30;81.81;100745.63;10437378;28;20674;-78
2024/02/27 21:20:42;;;;;;;34.85;19.30;;;;;;;3.25;82.29;100744.03;10440973;28;20048;-78
2024/02/27 21:25:45;;;;;;;33.17;19.25;;;;;;;3.23;82.63;100743.22;10450750;28;20053;-79
2024/02/27 21:30:48;;;;;;;30.55;18.25;;;;;;;3.19;82.48;100754.06;10446956;28;20049;-78
2024/02/27 21:35:53;;;;;;;53.70;28.77;;;;;;;3.15;82.76;100752.47;10435012;28;20045;-78
2024/02/27 21:40:56;;;;;;;39.42;22.35;;;;;;;3.06;82.06;100745.78;10435138;28;21179;-78
2024/02/27 21:46:01;;;;;;;45.08;23.42;;;;;;;2.94;82.09;100748.97;10445893;28;20411;-79
2024/02/27 21:51:06;;;;;;;38.15;20.25;;;;;;;2.93;82.95;100758.72;10434561;28;20139;-79
2024/02/27 21:56:08;;;;;;;38.95;21.70;;;;;;;2.93;83.59;100755.19;10444968;28;20518;-79
2024/02/27 22:01:12;;;;;;;42.08;21.10;;;;;;;2.92;84.62;100761.44;10450301;28;20041;-79
2024/02/27 22:06:19;;;;;;;38.17;21.02;;;;;;;2.73;84.90;100748.97;10453208;28;20049;-78
2024/02/27 22:11:22;;;;;;;44.15;22.90;;;;;;;2.58;85.48;100760.25;10453141;28;20040;-78
2024/02/27 22:16:25;;;;;;;42.85;22.25;;;;;;;2.57;85.81;100762.00;10449097;28;20434;-78
2024/02/27 22:21:30;;;;;;;36.70;20.60;;;;;;;2.57;86.21;100762.00;10452477;28;20111;-78
2024/02/27 22:26:33;;;;;;;50.28;23.85;;;;;;;2.52;86.69;100771.03;10436481;28;20503;-78
2024/02/27 22:31:36;;;;;;;37.28;21.00;;;;;;;2.59;86.37;100769.91;10439862;28;20056;-78
2024/02/27 22:36:41;;;;;;;34.88;18.88;;;;;;;2.35;84.17;100780.53;10441029;28;20045;-79
2024/02/27 22:41:44;;;;;;;34.00;19.30;;;;;;;2.10;84.82;100769.22;10439180;28;20036;-79
2024/02/27 22:46:46;;;;;;;34.55;19.45;;;;;;;2.04;85.21;100772.97;10439419;28;20044;-79
2024/02/27 22:51:51;;;;;;;37.10;19.80;;;;;;;1.96;85.51;100772.41;10427121;28;20040;-79
2024/02/27 22:56:54;;;;;;;38.53;20.35;;;;;;;1.87;86.08;100772.78;10466325;28;20095;-78
2024/02/27 23:01:57;;;;;;;38.60;20.92;;;;;;;1.74;85.98;100772.38;10437896;28;20056;-78